PSF weather

Pittsfield Municipal Airport
Pittsfield, Massachusetts, United States

Public forecast

Using degrees Fahrenheit for public forecast. Weather courtesy of forecast.io.

Current aviation weather report (METAR) for Pittsfield Municipal Airport

Retrieved 2020/08/05 13:54 UTC (16 minutes ago):

KPSF 051354Z AUTO 21006KT 10SM CLR 24/18 A3000 RMK AO2 SLP134 T02390183

Aviation forecast (TAF) for Pittsfield Municipal Airport

Retrieved 2020/08/05 12:36 UTC (2 hours ago):

TAF KPSF 051135Z 0512/0612 00000KT P6SM SCT004 SCT035 SCT100 FM051500 26008KT P6SM SCT050 FM060100 28003KT P6SM SKC